Flight Track Log - Related Links

Times and Time Zones

All times are in EDT time to prevent confusion due to time zone crossing. See the LIA553 flight status page for this flight to view local times or setup timezone preferences in your user account.

Time Position Orientation Groundspeed Altitude Reporting Facility
EDT Latitude Longitude Course Direction KTS MPH feet Rate Location/Type
Mon 03:12:00 PM 17.5648 -62.4252 126° Southeast  Level FlightAware Approximate
Mon 03:13:00 PM 17.5195 -62.3591 126° Southeast  Level FlightAware Approximate
Mon 03:14:00 PM 17.4743 -62.2931 126° Southeast  Level FlightAware Approximate
Mon 03:15:00 PM 17.4285 -62.2275 131° Southeast  Level FlightAware Approximate
Mon 03:16:00 PM 17.3775 -62.1663 131° Southeast  Level FlightAware Approximate
Mon 03:17:00 PM 17.3295 -62.1026 125° Southeast  Level FlightAware Approximate
Mon 03:18:00 PM 17.2852 -62.0360 125° Southeast  Level FlightAware Approximate
Mon 03:19:00 PM 17.2400 -61.9700 128° Southeast  Level FlightAware Approximate
Mon 03:20:00 PM 17.1921 -61.9062 128° Southeast  Level FlightAware Approximate
Mon 03:21:00 PM 17.1447 -61.8420 125° Southeast  Level FlightAware Approximate
Mon 03:22:00 PM 17.1367 -61.7927 90° East  Level Estimated
Mon 03:23:00 PM 17.1367 -61.7927 90° East  Level Estimated
Mon 03:24:00 PM 17.1367 -61.7927 90° East  Level Estimated
Mon 03:25:00 PM 17.1367 -61.7927 90° East  Level Estimated
Mon 03:26:00 PM 17.1367 -61.7927 90° East  Level Estimated
Mon 03:27:00 PM 17.1367 -61.7927 90° East  Level Estimated
Mon 03:28:00 PM 17.1367 -61.7927 90° East  Level Estimated
Mon 03:29:00 PM 17.1367 -61.7927 90° East  Level Estimated
Mon 03:30:00 PM 17.1367 -61.7927 90° East  Level Estimated
Mon 03:31:00 PM 17.1367 -61.7927 90° East  Level Estimated
Mon 03:32:00 PM 17.1367 -61.7927 90° East  Level Estimated
Mon 03:33:00 PM 17.1367 -61.7927 90° East  Level Estimated
Mon 03:34:00 PM 17.1367 -61.7927 90° East  Level Estimated
Mon 03:35:00 PM 17.1367 -61.7927 90° East  Level Estimated
Mon 03:36:00 PM 17.1367 -61.7927 90° East  Level Estimated
Mon 03:37:00 PM 17.1367 -61.7927 90° East  Level Estimated
Mon 03:38:00 PM 17.1367 -61.7927 90° East  Level Estimated

Login

Don't have an account? Register now (free) for customized features, flight alerts, and more!